Flight Track Log - Related Links

Times and Time Zones

All times are in EDT time to prevent confusion due to time zone crossing. See the LOF3416 flight status page for this flight to view local times or setup timezone preferences in your user account.

Time Position Orientation Groundspeed Altitude Reporting Facility
EDT Latitude Longitude Course Direction KTS MPH feet Rate Location/Type
Wed 06:13:56 PM 42.0333 -87.8833 194° South 216 249 3,000  Level Chicago TRACON
Wed 06:14:56 PM 41.9833 -87.8333 143° Southeast 240 276 5,100 1,950 Climbing Chicago TRACON
Wed 06:15:56 PM 41.9167 -87.8667 200° South 274 315 6,900 1,745 Climbing Chicago TRACON
Wed 06:17:17 PM 41.8386 -87.9228 208° Southwest 276 318 9,200 1,678 Climbing Chicago Center
Wed 06:18:19 PM 41.7631 -87.9658 203° Southwest 292 336 10,900 1,790 Climbing Chicago Center
Wed 06:19:00 PM 41.4085 -88.1583 194° South  Level FlightAware Approximate
Wed 06:19:21 PM 41.6692 -88.0219 204° Southwest 309 356 12,900  Level Chicago Center
Wed 06:20:23 PM 41.5897 -88.0703 204° Southwest 316 364 13,800 823 Climbing Chicago Center
Wed 06:21:25 PM 41.5033 -88.1222 204° Southwest 343 395 14,600 726 Climbing Chicago Center
Wed 06:22:27 PM 41.4147 -88.1742 204° Southwest 362 417 15,300 823 Climbing Chicago Center
Wed 06:23:29 PM 41.2978 -88.2297 200° South 382 440 16,300 871 Climbing Chicago Center
Wed 06:24:31 PM 41.1975 -88.2750 199° South 383 441 17,100 871 Climbing Chicago Center
Wed 06:25:33 PM 41.0969 -88.3200 199° South 385 443 18,100 871 Climbing Chicago Center
Wed 06:26:35 PM 40.9939 -88.3675 199° South 392 451 18,900 1,065 Climbing Chicago Center
Wed 06:27:37 PM 40.8703 -88.4217 198° South 392 451 20,300 1,355 Climbing Chicago Center
Wed 06:28:39 PM 40.7686 -88.4667 199° South 390 449 21,700 1,306 Climbing Chicago Center
Wed 06:29:41 PM 40.6692 -88.5097 198° South 383 441 23,000 1,113 Climbing Chicago Center
Wed 06:30:43 PM 40.5706 -88.5544 199° South 379 436 24,000 484 Climbing Chicago Center
Wed 06:31:45 PM 40.4600 -88.6022 198° South 390 449 24,000  Level Chicago Center
Wed 06:32:47 PM 40.3481 -88.6533 199° South 414 476 24,000  Level Chicago Center
Wed 06:33:49 PM 40.2569 -88.7464 218° Southwest 417 480 24,000  Level Chicago Center
Wed 06:34:51 PM 40.1714 -88.8508 223° Southwest 418 481 24,000  Level Chicago Center
Wed 06:35:53 PM 40.0861 -88.9608 225° Southwest 425 489 24,000  Level Chicago Center
Wed 06:36:55 PM 39.9833 -89.0933 225° Southwest 431 496 24,000  Level Chicago Center
Wed 06:37:46 PM 39.9119 -89.1814 223° Southwest 431 496 24,000  Level Kansas City Center
Wed 06:38:48 PM 39.8253 -89.2922 225° Southwest 434 499 24,000  Level Kansas City Center
Wed 06:39:50 PM 39.7378 -89.4014 224° Southwest 434 499 24,000  Level Kansas City Center
Wed 06:40:52 PM 39.6428 -89.5194 224° Southwest 435 501 24,000  Level Kansas City Center
Wed 06:41:53 PM 39.5561 -89.6272 224° Southwest 434 499 24,000  Level Kansas City Center
Wed 06:42:55 PM 39.4689 -89.7372 224° Southwest 437 503 24,000  Level Kansas City Center
Wed 06:43:57 PM 39.3808 -89.8447 223° Southwest 437 503 24,000  Level Kansas City Center
Wed 06:44:59 PM 39.2939 -89.9533 224° Southwest 437 503 24,000  Level Kansas City Center
Wed 06:46:01 PM 39.1869 -90.0850 224° Southwest 442 509 24,000  Level Kansas City Center
Wed 06:47:02 PM 39.0981 -90.1933 223° Southwest 442 509 24,000  Level Kansas City Center
Wed 06:48:04 PM 39.0097 -90.3028 224° Southwest 443 510 24,000  Level Kansas City Center
Wed 06:49:06 PM 38.9167 -90.4178 224° Southwest 440 506 24,000  Level Kansas City Center
Wed 06:50:08 PM 38.8353 -90.5361 229° Southwest 447 514 24,000  Level Kansas City Center
Wed 06:51:10 PM 38.7683 -90.6669 237° Southwest 435 501 24,000  Level Kansas City Center
Wed 06:52:11 PM 38.6961 -90.8081 237° Southwest 437 503 24,000  Level Kansas City Center
Wed 06:53:13 PM 38.6306 -90.9367 237° Southwest 435 501 24,000  Level Kansas City Center
Wed 06:54:15 PM 38.5628 -91.0694 237° Southwest 443 510 24,000  Level Kansas City Center
Wed 06:55:17 PM 38.5139 -91.2086 246° West 436 502 24,000  Level Kansas City Center
Wed 06:56:19 PM 38.4825 -91.3567 255° West 437 503 24,000  Level Kansas City Center
Wed 06:57:20 PM 38.4711 -91.5278 265° West 421 484 24,000  Level Kansas City Center
Wed 06:58:22 PM 38.4911 -91.6783 280° West 425 489 24,000  Level Kansas City Center
Wed 06:59:24 PM 38.5114 -91.8275 280° West 428 493 24,000  Level Kansas City Center
Wed 07:00:26 PM 38.4856 -91.9731 257° West 430 495 24,000  Level Kansas City Center
Wed 07:01:27 PM 38.3731 -92.0978 221° Southwest 444 511 24,000 -439 Level Kansas City Center
Wed 07:02:29 PM 38.2903 -92.2139 228° Southwest 443 510 23,100 -1,258 Descending Kansas City Center
Wed 07:03:31 PM 38.2206 -92.3203 230° Southwest 403 464 21,400 -1,984 Descending Kansas City Center
Wed 07:04:33 PM 38.1456 -92.4144 225° Southwest 362 417 19,000 -2,177 Descending Kansas City Center
Wed 07:05:35 PM 38.0742 -92.4992 223° Southwest 353 406 16,900 -1,463 Descending Kansas City Center
Wed 07:06:36 PM 38.0022 -92.5839 223° Southwest 353 406 16,000 -439 Descending Kansas City Center
Wed 07:07:38 PM 37.9306 -92.6667 222° Southwest 351 404 16,000  Level Kansas City Center
Wed 07:08:40 PM 37.8511 -92.7608 223° Southwest 355 409 16,000  Level Kansas City Center
Wed 07:09:42 PM 37.7761 -92.8475 222° Southwest 363 418 16,000 -732 Level Kansas City Center
Wed 07:10:43 PM 37.7031 -92.9319 222° Southwest 359 413 14,500 -1,561 Descending Kansas City Center
Wed 07:11:45 PM 37.6367 -93.0092 223° Southwest 337 388 12,800 -1,839 Descending Kansas City Center
Wed 07:12:47 PM 37.5725 -93.0814 222° Southwest 322 371 10,700 -2,177 Descending Kansas City Center
Wed 07:13:49 PM 37.4839 -93.1436 209° Southwest 308 354 8,300 -2,177 Descending Kansas City Center
Wed 07:14:51 PM 37.4169 -93.1906 209° Southwest 291 335 6,200 -1,790 Descending Kansas City Center
Wed 07:15:53 PM 37.3528 -93.2375 210° Southwest 278 320 4,600 -1,065 Descending Kansas City Center
Wed 07:16:55 PM 37.2869 -93.2817 208° Southwest 272 313 4,000 -293 Descending Kansas City Center
Wed 07:17:56 PM 37.2206 -93.3125 200° South 261 300 4,000 -195 Level Kansas City Center
Wed 07:18:58 PM 37.1694 -93.3475 209° Southwest 237 273 3,600 -532 Descending Kansas City Center
Wed 07:20:00 PM 37.1747 -93.4139 276° West 208 239 2,900 -677 Descending Kansas City Center
Wed 07:21:00 PM 37.2333 -93.3833 219° Southwest  Level FlightAware Approximate
Wed 07:28:00 PM 37.2457 -93.3886 219° Southwest  Level Estimated

Login

Don't have an account? Register now (free) for customized features, flight alerts, and more!